Lancaster, OH (43130)

9:43 PM EST on December 27, 2014 (GMT -0500)
KOHLANCA8 | Change Station
CLOSE
Current Station
Personal Weather Station
Location: Lancaster, OH
Elevation: 856 ft
Nearby Weather Stations

Elev 856 ft 39.72 °N, 82.57 °W | Updated 2 minutes ago

Rain
Rain
47.7 °F
Feels Like 48 °F
N
0.0
Wind Variable Wind from North
Gusts 0.0 mph

Today
High -- | Low -- °F
--% Chance of Precip.
Yesterday
High -- | Low -- °F
Precip. -- in
7:50 AM 5:12 PM
Waxing Crescent, 42% visible
Pressure 30.05 in
Visibility 4.0 miles
Clouds Overcast 800 ft
Windchill 48 °F
Dew Point 46 °F
Humidity 94%
Rainfall 0.07 in
Snow Depth Not available.
UV 0 out of 12
Pollen .10 out of 12
Air Quality Not available.
Flu Activity Not available.
SPECI KLHQ 280211Z AUTO 21004KT 4SM RA BR OVC008 09/08 A3005 RMK AO2 CIG 006V012 P0004 T00940078

More Conditions Fewer Conditions

Pressure 30.05 in
Visibility 4.0 miles
Clouds Overcast 800 ft
Windchill 48 °F
Dew Point 46 °F
Humidity 94%
Rainfall 0.07 in
Snow Depth Not available.
UV 0 out of 12
Pollen .10 out of 12
Air Quality Not available.
Flu Activity Not available.
SPECI KLHQ 280211Z AUTO 21004KT 4SM RA BR OVC008 09/08 A3005 RMK AO2 CIG 006V012 P0004 T00940078

More Conditions Fewer Conditions

10-Day Weather Forecast

Almanac

Astronomy

Dec. 27, 2014 Rise Set
Actual Time
Civil Twilight
Nautical Twilight
Astronomical Twilight
Moon
Length of Visible Light
Length of Day
Tomorrow will be .
, % of the Moon is Illuminated

Today's Extremes

State Highs State Lows

Community

WunderPhotos

Upload Photos

1,781,144 photos uploaded!

WunderBlogs® & News

Nearby

Air Quality

  Air Quality AQ Index Pollutant
Not available.

Snow Depth

Station Depth Elevation

Earthquake Activity

City Distance Mag. Time & Date
Minimum magnitude displayed is 2.5.

Coastal Water Temperatures

Place Temperature

Nearby Weather Stations